Wanlock, Illinois
Current Conditions -  °F | °C
As of 4:52 PM on Wednesday 22 Oct 2014 (Local Time) from KMLI Reporting Station
Clear Clear  
Wind Chill: 60°   Ceiling: Unl
Heat Index: 60°   Visibility: 10mi
Dew Point: 38°   Wind: 10mph
Humidity: 44%   Direction: 140°SE
Pressure: 30.21"   Gusts: NA
Location:  41.1928°N, 90.7165°W
Report Text: KMLI 222152Z 14009KT 10SM CLR 16/03 A3021 RMK AO2 SLP234 T01560033
Loading
Personal Weather Stations






























Interactive Weather Map
Tropical Storm Tracking
New forecast layout! Learn more

10-Day Weather Forecast

Advertisements
Track Severe Weather on mobile